createdAt,value
2023-03-22T00:02:27.869Z,13.60
2023-03-22T00:05:29.915Z,12.70
2023-03-22T00:08:31.324Z,12.93
2023-03-22T00:11:32.723Z,13.75
2023-03-22T00:14:34.133Z,13.90
2023-03-22T00:17:35.495Z,13.68
2023-03-22T00:20:37.148Z,14.95
2023-03-22T00:23:39.563Z,14.05
2023-03-22T00:26:40.938Z,13.88
2023-03-22T00:29:42.872Z,14.23
2023-03-22T00:32:44.380Z,15.55
2023-03-22T00:35:53.714Z,14.25
2023-03-22T00:38:55.138Z,14.95
2023-03-22T00:41:56.515Z,15.65
2023-03-22T00:44:57.903Z,16.35
2023-03-22T00:47:59.312Z,15.02
2023-03-22T00:51:01.062Z,15.18
2023-03-22T00:54:04.500Z,16.33
2023-03-22T00:57:06.052Z,15.93
2023-03-22T01:00:08.183Z,16.30
2023-03-22T01:03:09.597Z,17.15
2023-03-22T01:06:11.510Z,17.10
2023-03-22T01:09:12.943Z,16.25
2023-03-22T01:12:15.434Z,16.58
2023-03-22T01:15:16.969Z,16.20
2023-03-22T01:18:18.853Z,17.05
2023-03-22T01:21:20.280Z,17.50
2023-03-22T01:24:21.927Z,17.10
2023-03-22T01:27:23.348Z,17.42
2023-03-22T01:30:24.873Z,17.08
2023-03-22T01:33:26.354Z,16.63
2023-03-22T01:36:27.964Z,16.85
2023-03-22T01:39:29.901Z,17.17
2023-03-22T01:42:33.864Z,17.20
2023-03-22T01:45:41.438Z,16.70
2023-03-22T01:48:46.262Z,17.40
2023-03-22T01:51:53.224Z,16.92
2023-03-22T01:55:02.430Z,17.42
2023-03-22T01:58:21.717Z,16.92
2023-03-22T02:01:34.757Z,17.05
2023-03-22T02:04:38.366Z,17.20
2023-03-22T02:07:43.261Z,16.13
2023-03-22T02:10:45.325Z,17.45
2023-03-22T02:14:05.638Z,18.10
2023-03-22T02:17:28.314Z,17.75
2023-03-22T02:20:54.399Z,15.98
2023-03-22T02:24:24.237Z,17.27
2023-03-22T02:27:53.155Z,17.50
2023-03-22T02:31:22.617Z,17.00
2023-03-22T02:34:52.229Z,16.67
2023-03-22T02:38:43.907Z,16.42
2023-03-22T02:42:04.770Z,16.67
2023-03-22T02:45:17.988Z,15.55
2023-03-22T02:48:31.351Z,17.60
2023-03-22T02:51:39.832Z,16.95
2023-03-22T02:54:48.762Z,17.15
2023-03-22T02:57:54.073Z,16.38
2023-03-22T03:01:01.219Z,16.88
2023-03-22T03:04:06.919Z,16.30
2023-03-22T03:07:11.395Z,17.00
2023-03-22T03:10:16.952Z,16.75
2023-03-22T03:13:19.543Z,16.48
2023-03-22T03:16:25.195Z,16.70
2023-03-22T03:19:38.992Z,16.20
2023-03-22T03:22:52.607Z,17.05
2023-03-22T03:26:12.475Z,16.08
2023-03-22T03:29:25.849Z,16.27
2023-03-22T03:32:39.433Z,16.85
2023-03-22T03:35:56.536Z,15.77
2023-03-22T03:38:59.391Z,15.85
2023-03-22T03:42:03.443Z,16.05
2023-03-22T03:45:06.625Z,16.42
2023-03-22T03:48:13.528Z,15.68
2023-03-22T03:51:15.280Z,14.98
2023-03-22T03:54:17.913Z,15.95
2023-03-22T03:57:19.483Z,16.00
2023-03-22T04:00:21.082Z,14.57
2023-03-22T04:03:45.167Z,15.02
2023-03-22T04:06:46.520Z,14.68
2023-03-22T04:09:52.814Z,15.75
2023-03-22T04:13:03.121Z,15.18
2023-03-22T04:16:06.028Z,13.83
2023-03-22T04:19:10.506Z,14.55
2023-03-22T04:22:11.950Z,14.15
2023-03-22T04:25:14.582Z,12.75
2023-03-22T04:28:24.869Z,13.60
2023-03-22T04:31:26.934Z,14.30
2023-03-22T04:34:34.923Z,13.95
2023-03-22T04:37:38.588Z,12.43
2023-03-22T04:40:49.248Z,12.55
2023-03-22T04:43:59.236Z,12.82
2023-03-22T04:47:01.082Z,12.88
2023-03-22T04:50:02.811Z,13.57
2023-03-22T04:53:09.718Z,13.02
2023-03-22T04:56:13.575Z,12.65
2023-03-22T04:59:16.651Z,13.00
2023-03-22T05:02:18.097Z,11.93
2023-03-22T05:05:21.843Z,13.18
2023-03-22T05:08:25.715Z,12.17
2023-03-22T05:11:27.719Z,13.48
2023-03-22T05:14:42.805Z,13.43
2023-03-22T05:17:46.558Z,12.95
2023-03-22T05:20:48.409Z,12.50
2023-03-22T05:23:58.677Z,12.90
2023-03-22T05:27:00.553Z,11.88
2023-03-22T05:30:02.139Z,12.57
2023-03-22T05:33:21.279Z,12.45
2023-03-22T05:36:24.774Z,11.52
2023-03-22T05:39:43.080Z,12.30
2023-03-22T05:42:45.099Z,11.32
2023-03-22T05:45:53.937Z,11.65
2023-03-22T05:49:12.264Z,12.18
2023-03-22T05:52:15.066Z,11.90
2023-03-22T05:55:36.446Z,11.20
2023-03-22T05:58:39.463Z,11.32
2023-03-22T06:01:41.062Z,12.45
2023-03-22T06:04:51.297Z,9.98
2023-03-22T06:07:52.855Z,11.00
2023-03-22T06:10:55.890Z,9.40
2023-03-22T06:13:57.375Z,10.52
2023-03-22T06:17:04.086Z,10.07
2023-03-22T06:20:06.553Z,9.73
2023-03-22T06:23:08.237Z,9.48
2023-03-22T06:26:11.013Z,9.27
2023-03-22T06:29:13.168Z,9.68
2023-03-22T06:32:14.833Z,9.32
2023-03-22T06:35:16.489Z,8.88
2023-03-22T06:38:20.431Z,8.50
2023-03-22T06:41:22.237Z,8.70
2023-03-22T06:47:27.368Z,8.73
2023-03-22T06:50:49.062Z,8.40
2023-03-22T06:53:54.770Z,9.15
2023-03-22T06:56:56.316Z,9.00
2023-03-22T06:59:57.732Z,7.85
2023-03-22T07:02:59.492Z,8.50
2023-03-22T07:06:08.690Z,8.63
2023-03-22T07:09:13.634Z,8.13
2023-03-22T07:12:15.891Z,8.75
2023-03-22T07:15:18.575Z,8.93
2023-03-22T07:18:28.769Z,8.40
2023-03-22T07:21:30.313Z,9.88
2023-03-22T07:24:40.365Z,9.73
2023-03-22T07:27:46.212Z,10.45
2023-03-22T07:30:48.514Z,9.70
2023-03-22T07:33:52.386Z,9.68
2023-03-22T07:36:56.509Z,9.02
2023-03-22T07:39:58.163Z,10.13
2023-03-22T07:43:03.783Z,9.68
2023-03-22T07:46:22.134Z,9.80
2023-03-22T07:49:36.260Z,10.77
2023-03-22T07:52:47.935Z,10.35
2023-03-22T07:55:49.413Z,10.23
2023-03-22T07:58:50.833Z,9.68
2023-03-22T08:01:52.831Z,10.90
2023-03-22T08:05:02.062Z,10.95
2023-03-22T08:08:10.175Z,11.60
2023-03-22T08:11:11.677Z,10.25
2023-03-22T08:14:13.170Z,10.48
2023-03-22T08:17:14.748Z,10.63
2023-03-22T08:20:16.522Z,10.65
2023-03-22T08:23:38.493Z,12.50
2023-03-22T08:26:44.755Z,10.93
2023-03-22T08:29:56.380Z,10.00
2023-03-22T08:32:57.751Z,9.55
2023-03-22T08:36:11.117Z,9.90
2023-03-22T08:39:19.787Z,10.15
2023-03-22T08:42:29.801Z,9.25
2023-03-22T08:45:31.864Z,9.13
2023-03-22T08:48:41.050Z,9.15
2023-03-22T08:51:49.179Z,9.13
2023-03-22T08:54:53.970Z,8.82
2023-03-22T08:58:24.458Z,7.13
2023-03-22T09:01:44.428Z,7.78
2023-03-22T09:04:46.700Z,9.73
2023-03-22T09:07:52.763Z,8.32
2023-03-22T09:11:11.841Z,7.93
2023-03-22T09:14:13.235Z,7.78
2023-03-22T09:17:14.860Z,6.70
2023-03-22T09:20:16.609Z,6.97
2023-03-22T09:23:20.844Z,6.80
2023-03-22T09:26:22.371Z,6.43
2023-03-22T09:29:25.882Z,6.63
2023-03-22T09:32:27.412Z,7.25
2023-03-22T09:35:34.474Z,6.70
2023-03-22T09:38:41.445Z,6.65
2023-03-22T09:41:50.501Z,5.97
2023-03-22T09:44:53.089Z,5.95
2023-03-22T09:48:01.358Z,5.63
2023-03-22T09:51:05.429Z,5.53
2023-03-22T09:54:18.985Z,4.75
2023-03-22T09:57:34.591Z,5.40
2023-03-22T10:00:48.059Z,4.95
2023-03-22T10:04:17.459Z,5.25
2023-03-22T10:07:34.579Z,4.43
2023-03-22T10:10:37.014Z,5.30
2023-03-22T10:14:09.204Z,4.97
2023-03-22T10:17:16.102Z,4.38
2023-03-22T10:20:31.771Z,5.18
2023-03-22T10:23:53.599Z,4.50
2023-03-22T10:26:55.615Z,4.47
2023-03-22T10:30:18.979Z,4.72
2023-03-22T10:33:26.429Z,5.38
2023-03-22T10:36:31.061Z,4.63
2023-03-22T10:39:38.404Z,3.85
2023-03-22T10:42:41.968Z,3.65
2023-03-22T10:45:43.869Z,3.70
2023-03-22T10:48:48.011Z,3.83
2023-03-22T10:51:54.367Z,4.85
2023-03-22T10:55:00.170Z,5.53
2023-03-22T10:58:13.598Z,4.13
2023-03-22T11:01:36.935Z,5.07
2023-03-22T11:07:44.800Z,3.97
2023-03-22T11:10:50.715Z,3.78
2023-03-22T11:14:14.539Z,3.80
2023-03-22T11:17:23.144Z,3.45
2023-03-22T11:20:24.616Z,3.47
2023-03-22T11:23:27.210Z,3.70
2023-03-22T11:26:37.385Z,13.50
2023-03-22T11:32:44.783Z,7.40
2023-03-22T11:35:53.744Z,3.42
2023-03-22T11:39:02.856Z,3.97
2023-03-22T11:42:06.558Z,2.80
2023-03-22T11:45:14.729Z,3.00
2023-03-22T11:48:21.222Z,2.90
2023-03-22T11:51:42.157Z,2.75
2023-03-22T11:54:45.967Z,2.35
2023-03-22T11:57:47.380Z,2.40
2023-03-22T12:00:52.159Z,2.60
2023-03-22T12:03:57.107Z,2.80
2023-03-22T12:07:00.688Z,2.90
2023-03-22T12:10:30.898Z,2.58
2023-03-22T12:13:51.150Z,2.90
2023-03-22T12:17:00.123Z,2.80
2023-03-22T12:20:07.816Z,3.25
2023-03-22T12:23:20.964Z,3.53
2023-03-22T12:26:27.878Z,2.60
2023-03-22T12:29:30.205Z,2.58
2023-03-22T12:32:35.982Z,3.20
2023-03-22T12:35:43.520Z,2.80
2023-03-22T12:38:53.744Z,3.08
2023-03-22T12:42:01.143Z,4.30
2023-03-22T12:45:10.648Z,3.22
2023-03-22T12:48:20.938Z,3.17
2023-03-22T12:51:22.475Z,5.32
2023-03-22T12:54:25.616Z,5.03
2023-03-22T12:57:27.585Z,4.45
2023-03-22T13:00:38.198Z,4.63
2023-03-22T13:03:46.327Z,6.85
2023-03-22T13:06:50.627Z,3.67
2023-03-22T13:09:52.062Z,3.42
2023-03-22T13:13:15.304Z,3.70
2023-03-22T13:16:20.176Z,4.25
2023-03-22T13:19:33.433Z,3.97
2023-03-22T13:22:38.025Z,2.80
2023-03-22T13:25:59.277Z,3.10
2023-03-22T13:29:09.842Z,3.30
2023-03-22T13:32:46.701Z,2.55
2023-03-22T13:35:53.979Z,3.08
2023-03-22T13:38:58.287Z,3.13
2023-03-22T13:42:37.578Z,2.50
2023-03-22T13:46:09.050Z,3.30
2023-03-22T13:49:19.268Z,2.20
2023-03-22T13:52:27.633Z,2.90
2023-03-22T13:55:50.747Z,2.90
2023-03-22T13:58:53.157Z,2.80
2023-03-22T14:02:00.143Z,2.97
2023-03-22T14:05:08.975Z,2.92
2023-03-22T14:08:21.260Z,3.50
2023-03-22T14:11:28.684Z,2.80
2023-03-22T14:14:41.856Z,2.88
2023-03-22T14:18:15.717Z,2.72
2023-03-22T14:21:37.421Z,2.50
